PWSweather.com
Personal Weather Stations
Station Observations
WITTFAMILY
Redmond Watershed, Redmond, WA 98053

Redmond WatershedRedmond, WA 98053

Lat: 47.7071, Lon: -122.0608

Elevation: 350

Station Type: DIY

http://wittfamily.com/weewx

Latest ConditionsUpdated 7:34:06 AM PDT Tuesday, Jul 23, 2019
Currently Today's Max Today's Min Today's Average
Temperature 59.5°F15.3°C 59.7°F15.4°C 54.3°F12.4°C 56.4°F13.6°C
Dew Point 49.3°F9.6°C 53.7°F12.1°C 49.3°F9.6°C 51.7°F10.9°C
Winds Calm Calm 1.0 mph -1.6 kmh - - 0.0 mph 0.0 kmh
Wind Gusts -- -- - -
Humidity 60% 64% 56% 60%
Pressure 29.80 in1009.1 mb 29.80 in1009.1 mb 29.76 in1007.8 mb -
Hour Temp Dew Point Humidity Winds Wind Gusts Pressure Precip Precip Rate Daily Precip Total
07:34 AM 59.5°F15.3°C 49.3°F9.6°C 60% Calm Calm -- 29.80 in1009.1 mb 20.39 in517.9 mm 1.80 in45.7 mm 23.83 in605.3 mm
07:33 AM 59.6°F15.3°C 49.3°F9.6°C 61% Calm Calm -- 29.80 in1009.1 mb 20.36 in517.1 mm 0.00 in0.0 mm 23.80 in604.5 mm
07:32 AM 59.5°F15.3°C 49.3°F9.6°C 60% Calm Calm -- 29.80 in1009.1 mb 20.37 in517.4 mm 0.60 in15.2 mm 23.80 in604.5 mm
07:31 AM 59.5°F15.3°C 49.5°F9.7°C 61% Calm Calm -- 29.80 in1009.1 mb 20.36 in517.1 mm 0.00 in0.0 mm 23.79 in604.3 mm
07:30 AM 59.5°F15.3°C 49.4°F9.7°C 61% Calm Calm -- 29.80 in1009.1 mb 20.39 in517.9 mm 0.00 in0.0 mm 23.79 in604.3 mm
07:29 AM 59.5°F15.3°C 49.4°F9.7°C 61% Calm Calm -- 29.80 in1009.1 mb 20.40 in518.2 mm 1.20 in30.5 mm 23.79 in604.3 mm
07:28 AM 59.5°F15.3°C 49.4°F9.7°C 61% Calm Calm -- 29.80 in1009.1 mb 20.38 in517.7 mm 0.00 in0.0 mm 23.77 in603.8 mm
07:27 AM 59.5°F15.3°C 49.5°F9.7°C 61% Calm Calm -- 29.80 in1009.1 mb 20.38 in517.7 mm 0.00 in0.0 mm 23.77 in603.8 mm
07:26 AM 59.6°F15.3°C 49.5°F9.7°C 61% Calm Calm -- 29.80 in1009.1 mb 20.39 in517.9 mm 0.00 in0.0 mm 23.77 in603.8 mm
07:25 AM 59.6°F15.3°C 49.5°F9.7°C 61% Calm Calm -- 29.80 in1009.1 mb 20.41 in518.4 mm 0.60 in15.2 mm 23.77 in603.8 mm
07:24 AM 59.6°F15.3°C 49.5°F9.7°C 61% Calm Calm -- 29.80 in1009.1 mb 20.40 in518.2 mm 0.60 in15.2 mm 23.76 in603.5 mm
07:23 AM 59.6°F15.3°C 49.5°F9.7°C 61% Calm Calm -- 29.80 in1009.1 mb 20.39 in517.9 mm 0.60 in15.2 mm 23.75 in603.3 mm
07:22 AM 59.6°F15.3°C 49.6°F9.8°C 61% Calm Calm -- 29.80 in1009.1 mb 20.38 in517.7 mm 0.00 in0.0 mm 23.74 in603.0 mm
07:21 AM 59.6°F15.3°C 49.6°F9.8°C 61% Calm Calm -- 29.80 in1009.1 mb 20.40 in518.2 mm 0.00 in0.0 mm 23.74 in603.0 mm
07:20 AM 59.6°F15.3°C 49.7°F9.8°C 61% Calm Calm -- 29.80 in1009.1 mb 20.40 in518.2 mm 0.00 in0.0 mm 23.74 in603.0 mm
07:19 AM 59.6°F15.3°C 49.6°F9.8°C 61% Calm Calm -- 29.80 in1009.1 mb 20.40 in518.2 mm 0.00 in0.0 mm 23.74 in603.0 mm
07:18 AM 59.6°F15.3°C 49.6°F9.8°C 61% Calm Calm -- 29.80 in1009.1 mb 20.40 in518.2 mm 1.80 in45.7 mm 23.74 in603.0 mm
07:17 AM 59.6°F15.3°C 49.7°F9.8°C 61% Calm Calm -- 29.80 in1009.1 mb 20.37 in517.4 mm 0.60 in15.2 mm 23.71 in602.2 mm
07:16 AM 59.6°F15.3°C 49.7°F9.8°C 61% Calm Calm -- 29.80 in1009.1 mb 20.36 in517.1 mm 0.00 in0.0 mm 23.70 in602.0 mm
07:15 AM 59.3°F15.2°C 49.7°F9.8°C 61% Calm Calm -- 29.80 in1009.1 mb 20.36 in517.1 mm 0.00 in0.0 mm 23.70 in602.0 mm
07:14 AM 59.2°F15.1°C 49.6°F9.8°C 61% Calm Calm -- 29.80 in1009.1 mb 20.37 in517.4 mm 0.00 in0.0 mm 23.70 in602.0 mm
07:13 AM 59.0°F15.0°C 49.8°F9.9°C 61% Calm Calm -- 29.80 in1009.1 mb 20.37 in517.4 mm 0.00 in0.0 mm 23.70 in602.0 mm
07:12 AM 58.9°F14.9°C 49.8°F9.9°C 61% Calm Calm -- 29.80 in1009.1 mb 20.40 in518.2 mm 0.00 in0.0 mm 23.70 in602.0 mm
07:11 AM 58.8°F14.9°C 49.8°F9.9°C 61% Calm Calm -- 29.80 in1009.1 mb 20.40 in518.2 mm 0.00 in0.0 mm 23.70 in602.0 mm
07:10 AM 58.7°F14.8°C 49.8°F9.9°C 61% Calm Calm -- 29.80 in1009.1 mb 20.40 in518.2 mm 1.20 in30.5 mm 23.70 in602.0 mm
07:09 AM 58.6°F14.8°C 49.8°F9.9°C 61% Calm Calm -- 29.80 in1009.1 mb 20.38 in517.7 mm 0.60 in15.2 mm 23.68 in601.5 mm
07:08 AM 58.4°F14.7°C 49.9°F9.9°C 62% Calm Calm -- 29.80 in1009.1 mb 20.37 in517.4 mm 0.00 in0.0 mm 23.67 in601.2 mm
07:07 AM 58.4°F14.7°C 49.9°F9.9°C 62% Calm Calm -- 29.80 in1009.1 mb 20.37 in517.4 mm 1.20 in30.5 mm 23.67 in601.2 mm
07:06 AM 58.3°F14.6°C 49.9°F9.9°C 62% Calm Calm -- 29.80 in1009.1 mb 20.35 in516.9 mm 0.60 in15.2 mm 23.65 in600.7 mm
07:05 AM 58.2°F14.6°C 49.9°F9.9°C 62% Calm Calm -- 29.80 in1009.1 mb 20.34 in516.6 mm 1.20 in30.5 mm 23.64 in600.5 mm
07:04 AM 58.2°F14.6°C 50.0°F10.0°C 62% Calm Calm -- 29.80 in1009.1 mb 20.32 in516.1 mm 0.00 in0.0 mm 23.62 in599.9 mm
07:03 AM 58.1°F14.5°C 50.1°F10.1°C 62% Calm Calm -- 29.80 in1009.1 mb 20.35 in516.9 mm 0.60 in15.2 mm 23.62 in599.9 mm
07:02 AM 57.9°F14.4°C 50.1°F10.1°C 62% Calm Calm -- 29.80 in1009.1 mb 20.34 in516.6 mm 0.60 in15.2 mm 23.61 in599.7 mm
07:01 AM 57.8°F14.3°C 50.0°F10.0°C 62% Calm Calm -- 29.80 in1009.1 mb 20.33 in516.4 mm 0.03 in0.8 mm 23.60 in599.4 mm
06:59 AM 57.5°F14.2°C 50.1°F10.1°C 62% Calm Calm -- 29.80 in1009.1 mb 20.30 in515.6 mm 0.00 in0.0 mm 23.57 in598.7 mm
06:58 AM 57.4°F14.1°C 50.2°F10.1°C 62% Calm Calm -- 29.80 in1009.1 mb 20.30 in515.6 mm 2.40 in61.0 mm 23.57 in598.7 mm
06:57 AM 57.3°F14.1°C 50.2°F10.1°C 62% Calm Calm -- 29.80 in1009.1 mb 20.26 in514.6 mm 0.00 in0.0 mm 23.53 in597.7 mm
06:56 AM 57.3°F14.1°C 50.1°F10.1°C 62% Calm Calm -- 29.80 in1009.1 mb 20.28 in515.1 mm 0.00 in0.0 mm 23.53 in597.7 mm
06:55 AM 57.2°F14.0°C 50.2°F10.1°C 62% Calm Calm -- 29.80 in1009.1 mb 20.34 in516.6 mm 0.00 in0.0 mm 23.53 in597.7 mm
06:54 AM 57.2°F14.0°C 50.1°F10.1°C 62% Calm Calm -- 29.80 in1009.1 mb 20.36 in517.1 mm 1.20 in30.5 mm 23.53 in597.7 mm
06:53 AM 57.2°F14.0°C 50.1°F10.1°C 62% Calm Calm -- 29.80 in1009.1 mb 20.34 in516.6 mm 0.00 in0.0 mm 23.51 in597.2 mm
06:52 AM 57.2°F14.0°C 50.4°F10.2°C 63% Calm Calm -- 29.80 in1009.1 mb 20.34 in516.6 mm 0.00 in0.0 mm 23.51 in597.2 mm
06:51 AM 57.1°F13.9°C 50.4°F10.2°C 63% Calm Calm -- 29.80 in1009.1 mb 20.34 in516.6 mm 1.20 in30.5 mm 23.51 in597.2 mm
06:50 AM 57.1°F13.9°C 50.4°F10.2°C 63% Calm Calm -- 29.80 in1009.1 mb 20.32 in516.1 mm 1.20 in30.5 mm 23.49 in596.6 mm
06:49 AM 57.0°F13.9°C 50.4°F10.2°C 63% Calm Calm -- 29.80 in1009.1 mb 20.30 in515.6 mm 0.00 in0.0 mm 23.47 in596.1 mm
06:48 AM 56.9°F13.8°C 50.6°F10.3°C 63% Calm Calm -- 29.80 in1009.1 mb 20.32 in516.1 mm 0.60 in15.2 mm 23.47 in596.1 mm
06:47 AM 56.8°F13.8°C 50.3°F10.2°C 62% Calm Calm -- 29.80 in1009.1 mb 20.31 in515.9 mm 0.00 in0.0 mm 23.46 in595.9 mm
06:46 AM 56.6°F13.7°C 50.6°F10.3°C 63% Calm Calm -- 29.80 in1009.1 mb 20.32 in516.1 mm 0.00 in0.0 mm 23.46 in595.9 mm
06:45 AM 56.5°F13.6°C 50.6°F10.3°C 63% Calm Calm -- 29.80 in1009.1 mb 20.33 in516.4 mm 1.20 in30.5 mm 23.46 in595.9 mm
06:44 AM 56.4°F13.6°C 50.3°F10.2°C 62% Calm Calm -- 29.80 in1009.1 mb 20.31 in515.9 mm 0.00 in0.0 mm 23.44 in595.4 mm
06:43 AM 56.3°F13.5°C 50.5°F10.3°C 63% Calm Calm -- 29.80 in1009.1 mb 20.31 in515.9 mm 1.20 in30.5 mm 23.44 in595.4 mm
06:42 AM 56.3°F13.5°C 50.8°F10.4°C 64% Calm Calm -- 29.80 in1009.1 mb 20.29 in515.4 mm 0.00 in0.0 mm 23.42 in594.9 mm
06:41 AM 56.2°F13.4°C 50.7°F10.4°C 63% Calm Calm -- 29.80 in1009.1 mb 20.30 in515.6 mm 0.00 in0.0 mm 23.42 in594.9 mm
06:40 AM 56.0°F13.3°C 50.9°F10.5°C 64% Calm Calm -- 29.80 in1009.1 mb 20.31 in515.9 mm 0.00 in0.0 mm 23.42 in594.9 mm
06:39 AM 55.9°F13.3°C 50.9°F10.5°C 64% Calm Calm -- 29.80 in1009.1 mb 20.33 in516.4 mm 0.60 in15.2 mm 23.42 in594.9 mm
06:38 AM 55.7°F13.2°C 50.6°F10.3°C 63% Calm Calm -- 29.80 in1009.1 mb 20.32 in516.1 mm 0.00 in0.0 mm 23.41 in594.6 mm
06:37 AM 55.6°F13.1°C 51.0°F10.6°C 64% Calm Calm -- 29.80 in1009.1 mb 20.36 in517.1 mm 0.00 in0.0 mm 23.41 in594.6 mm
06:36 AM 55.5°F13.1°C 50.9°F10.5°C 64% Calm Calm -- 29.80 in1009.1 mb 20.36 in517.1 mm 0.00 in0.0 mm 23.41 in594.6 mm
06:35 AM 55.4°F13.0°C 50.8°F10.4°C 64% Calm Calm -- 29.80 in1009.1 mb 20.36 in517.1 mm 0.60 in15.2 mm 23.41 in594.6 mm
06:34 AM 55.4°F13.0°C 50.9°F10.5°C 64% Calm Calm -- 29.80 in1009.1 mb 20.35 in516.9 mm 0.00 in0.0 mm 23.40 in594.4 mm
06:33 AM 55.4°F13.0°C 51.1°F10.6°C 64% Calm Calm -- 29.80 in1009.1 mb 20.35 in516.9 mm 0.60 in15.2 mm 23.40 in594.4 mm
06:32 AM 55.3°F12.9°C 50.9°F10.5°C 64% Calm Calm -- 29.80 in1009.1 mb 20.34 in516.6 mm 0.00 in0.0 mm 23.39 in594.1 mm
06:31 AM 55.2°F12.9°C 50.6°F10.3°C 63% Calm Calm -- 29.80 in1009.1 mb 20.37 in517.4 mm 1.80 in45.7 mm 23.39 in594.1 mm
06:30 AM 55.2°F12.9°C 50.7°F10.4°C 63% Calm Calm -- 29.80 in1009.1 mb 20.34 in516.6 mm 2.40 in61.0 mm 23.36 in593.3 mm
06:29 AM 55.1°F12.8°C 51.0°F10.6°C 64% Calm Calm -- 29.80 in1009.1 mb 20.30 in515.6 mm 0.00 in0.0 mm 23.32 in592.3 mm
06:28 AM 55.1°F12.8°C 51.0°F10.6°C 64% Calm Calm -- 29.80 in1009.1 mb 20.33 in516.4 mm 0.00 in0.0 mm 23.32 in592.3 mm
06:27 AM 55.0°F12.8°C 50.9°F10.5°C 64% Calm Calm -- 29.80 in1009.1 mb 20.34 in516.6 mm 1.20 in30.5 mm 23.32 in592.3 mm
06:26 AM 55.0°F12.8°C 50.8°F10.4°C 63% Calm Calm -- 29.80 in1009.1 mb 20.32 in516.1 mm 0.60 in15.2 mm 23.30 in591.8 mm
06:25 AM 54.8°F12.7°C 50.6°F10.3°C 63% Calm Calm -- 29.80 in1009.1 mb 20.31 in515.9 mm 0.00 in0.0 mm 23.29 in591.6 mm
06:24 AM 54.8°F12.7°C 50.7°F10.4°C 63% Calm Calm -- 29.80 in1009.1 mb 20.33 in516.4 mm 0.00 in0.0 mm 23.29 in591.6 mm
06:23 AM 54.7°F12.6°C 51.0°F10.6°C 64% Calm Calm -- 29.80 in1009.1 mb 20.34 in516.6 mm 0.60 in15.2 mm 23.29 in591.6 mm
06:22 AM 54.7°F12.6°C 50.9°F10.5°C 64% Calm Calm -- 29.80 in1009.1 mb 20.33 in516.4 mm 1.80 in45.7 mm 23.28 in591.3 mm
06:21 AM 54.7°F12.6°C 51.0°F10.6°C 64% Calm Calm -- 29.80 in1009.1 mb 20.30 in515.6 mm 0.00 in0.0 mm 23.25 in590.6 mm
06:20 AM 54.7°F12.6°C 50.9°F10.5°C 63% Calm Calm -- 29.80 in1009.1 mb 20.30 in515.6 mm 0.00 in0.0 mm 23.25 in590.6 mm
06:19 AM 54.6°F12.6°C 50.9°F10.5°C 63% Calm Calm -- 29.80 in1009.1 mb 20.31 in515.9 mm 0.00 in0.0 mm 23.25 in590.6 mm
06:18 AM 54.6°F12.6°C 50.8°F10.4°C 63% Calm Calm -- 29.80 in1009.1 mb 20.31 in515.9 mm 0.00 in0.0 mm 23.25 in590.6 mm
06:17 AM 54.6°F12.6°C 50.9°F10.5°C 63% Calm Calm -- 29.80 in1009.1 mb 20.33 in516.4 mm 0.00 in0.0 mm 23.25 in590.6 mm
06:16 AM 54.6°F12.6°C 50.7°F10.4°C 63% Calm Calm -- 29.80 in1009.1 mb 20.35 in516.9 mm 0.00 in0.0 mm 23.25 in590.6 mm
06:15 AM 54.5°F12.5°C 50.8°F10.4°C 63% Calm Calm -- 29.80 in1009.1 mb 20.35 in516.9 mm 0.00 in0.0 mm 23.25 in590.6 mm
06:14 AM 54.5°F12.5°C 50.9°F10.5°C 63% Calm Calm -- 29.80 in1009.1 mb 20.36 in517.1 mm 1.20 in30.5 mm 23.25 in590.6 mm
06:13 AM 54.5°F12.5°C 50.4°F10.2°C 62% Calm Calm -- 29.80 in1009.1 mb 20.34 in516.6 mm 0.60 in15.2 mm 23.23 in590.0 mm
06:12 AM 54.4°F12.4°C 51.0°F10.6°C 64% Calm Calm -- 29.80 in1009.1 mb 20.33 in516.4 mm 4.20 in106.7 mm 23.22 in589.8 mm
06:11 AM 54.4°F12.4°C 50.8°F10.4°C 63% Calm Calm -- 29.80 in1009.1 mb 20.26 in514.6 mm 0.00 in0.0 mm 23.15 in588.0 mm
06:10 AM 54.4°F12.4°C 50.9°F10.5°C 63% Calm Calm -- 29.80 in1009.1 mb 20.28 in515.1 mm 1.20 in30.5 mm 23.15 in588.0 mm
06:09 AM 54.4°F12.4°C 50.7°F10.4°C 63% Calm Calm -- 29.80 in1009.1 mb 20.26 in514.6 mm 0.00 in0.0 mm 23.13 in587.5 mm
06:08 AM 54.4°F12.4°C 50.9°F10.5°C 63% Calm Calm -- 29.80 in1009.1 mb 20.28 in515.1 mm 0.00 in0.0 mm 23.13 in587.5 mm
06:07 AM 54.3°F12.4°C 51.0°F10.6°C 63% Calm Calm -- 29.80 in1009.1 mb 20.28 in515.1 mm 0.00 in0.0 mm 23.13 in587.5 mm
06:06 AM 54.3°F12.4°C 51.0°F10.6°C 63% Calm Calm -- 29.80 in1009.1 mb 20.29 in515.4 mm 0.00 in0.0 mm 23.13 in587.5 mm
06:05 AM 54.3°F12.4°C 50.9°F10.5°C 63% Calm Calm -- 29.80 in1009.1 mb 20.30 in515.6 mm 0.00 in0.0 mm 23.13 in587.5 mm
06:04 AM 54.3°F12.4°C 50.4°F10.2°C 62% Calm Calm -- 29.80 in1009.1 mb 20.33 in516.4 mm 0.60 in15.2 mm 23.13 in587.5 mm
06:03 AM 54.3°F12.4°C 50.9°F10.5°C 63% Calm Calm -- 29.80 in1009.1 mb 20.32 in516.1 mm 3.60 in91.4 mm 23.12 in587.2 mm
06:02 AM 54.3°F12.4°C 51.1°F10.6°C 63% Calm Calm -- 29.80 in1009.1 mb 20.26 in514.6 mm 0.60 in15.2 mm 23.06 in585.7 mm
06:01 AM 54.3°F12.4°C 51.0°F10.6°C 63% Calm Calm -- 29.80 in1009.1 mb 20.25 in514.4 mm 0.00 in0.0 mm 23.05 in585.5 mm
05:59 AM 54.3°F12.4°C 50.9°F10.5°C 63% Calm Calm -- 29.80 in1009.1 mb 20.29 in515.4 mm 0.00 in0.0 mm 23.05 in585.5 mm
05:58 AM 54.4°F12.4°C 50.9°F10.5°C 63% Calm Calm -- 29.80 in1009.1 mb 20.31 in515.9 mm 0.00 in0.0 mm 23.05 in585.5 mm
05:57 AM 54.4°F12.4°C 50.9°F10.5°C 63% Calm Calm -- 29.80 in1009.1 mb 20.34 in516.6 mm 1.80 in45.7 mm 23.05 in585.5 mm
05:56 AM 54.4°F12.4°C 50.8°F10.4°C 63% Calm Calm -- 29.80 in1009.1 mb 20.31 in515.9 mm 0.00 in0.0 mm 23.02 in584.7 mm
05:55 AM 54.4°F12.4°C 50.9°F10.5°C 63% Calm Calm -- 29.80 in1009.1 mb 20.32 in516.1 mm 0.00 in0.0 mm 23.02 in584.7 mm
05:54 AM 54.4°F12.4°C 50.8°F10.4°C 63% Calm Calm -- 29.80 in1009.1 mb 20.32 in516.1 mm 0.00 in0.0 mm 23.02 in584.7 mm
05:53 AM 54.3°F12.4°C 50.8°F10.4°C 62% Calm Calm -- 29.80 in1009.1 mb 20.32 in516.1 mm 0.00 in0.0 mm 23.02 in584.7 mm
05:52 AM 54.4°F12.4°C 50.7°F10.4°C 62% Calm Calm -- 29.80 in1009.1 mb 20.34 in516.6 mm 1.20 in30.5 mm 23.02 in584.7 mm
05:51 AM 54.4°F12.4°C 50.7°F10.4°C 62% Calm Calm -- 29.80 in1009.1 mb 20.32 in516.1 mm 0.00 in0.0 mm 23.00 in584.2 mm
05:50 AM 54.4°F12.4°C 50.7°F10.4°C 62% Calm Calm -- 29.80 in1009.1 mb 20.32 in516.1 mm 0.00 in0.0 mm 23.00 in584.2 mm
05:49 AM 54.4°F12.4°C 50.8°F10.4°C 62% Calm Calm -- 29.80 in1009.1 mb 20.34 in516.6 mm 1.20 in30.5 mm 23.00 in584.2 mm
05:48 AM 54.4°F12.4°C 50.7°F10.4°C 62% Calm Calm -- 29.80 in1009.1 mb 20.32 in516.1 mm 0.00 in0.0 mm 22.98 in583.7 mm
05:47 AM 54.4°F12.4°C 50.7°F10.4°C 62% Calm Calm -- 29.80 in1009.1 mb 20.33 in516.4 mm 0.60 in15.2 mm 22.98 in583.7 mm
05:46 AM 54.5°F12.5°C 50.9°F10.5°C 62% Calm Calm -- 29.80 in1009.1 mb 20.32 in516.1 mm 0.00 in0.0 mm 22.97 in583.4 mm
05:45 AM 54.5°F12.5°C 50.7°F10.4°C 62% Calm Calm -- 29.80 in1009.1 mb 20.32 in516.1 mm 0.60 in15.2 mm 22.97 in583.4 mm
05:44 AM 54.5°F12.5°C 50.6°F10.3°C 62% Calm Calm -- 29.80 in1009.1 mb 20.31 in515.9 mm 0.60 in15.2 mm 22.96 in583.2 mm
05:43 AM 54.6°F12.6°C 50.7°F10.4°C 62% Calm Calm -- 29.80 in1009.1 mb 20.30 in515.6 mm 0.00 in0.0 mm 22.95 in582.9 mm
05:42 AM 54.6°F12.6°C 50.7°F10.4°C 62% Calm Calm -- 29.80 in1009.1 mb 20.31 in515.9 mm 0.00 in0.0 mm 22.95 in582.9 mm
05:41 AM 54.6°F12.6°C 50.7°F10.4°C 62% Calm Calm -- 29.79 in1008.8 mb 20.31 in515.9 mm 2.40 in61.0 mm 22.95 in582.9 mm
05:40 AM 54.4°F12.4°C 50.7°F10.4°C 62% Calm Calm -- 29.79 in1008.8 mb 20.27 in514.9 mm 0.00 in0.0 mm 22.91 in581.9 mm
05:39 AM 54.4°F12.4°C 50.6°F10.3°C 62% Calm Calm -- 29.79 in1008.8 mb 20.27 in514.9 mm 0.00 in0.0 mm 22.91 in581.9 mm
05:38 AM 54.5°F12.5°C 50.7°F10.4°C 62% Calm Calm -- 29.79 in1008.8 mb 20.27 in514.9 mm 0.60 in15.2 mm 22.91 in581.9 mm
05:37 AM 54.4°F12.4°C 50.7°F10.4°C 62% Calm Calm -- 29.79 in1008.8 mb 20.26 in514.6 mm 0.00 in0.0 mm 22.90 in581.7 mm
05:36 AM 54.5°F12.5°C 50.6°F10.3°C 62% Calm Calm -- 29.79 in1008.8 mb 20.27 in514.9 mm 0.00 in0.0 mm 22.90 in581.7 mm
05:35 AM 54.5°F12.5°C 50.7°F10.4°C 62% Calm Calm -- 29.79 in1008.8 mb 20.30 in515.6 mm 0.00 in0.0 mm 22.90 in581.7 mm
05:34 AM 54.6°F12.6°C 50.7°F10.4°C 62% Calm Calm -- 29.79 in1008.8 mb 20.32 in516.1 mm 0.00 in0.0 mm 22.90 in581.7 mm
05:33 AM 54.6°F12.6°C 50.6°F10.3°C 61% Calm Calm -- 29.79 in1008.8 mb 20.32 in516.1 mm 0.00 in0.0 mm 22.90 in581.7 mm
05:32 AM 54.6°F12.6°C 50.7°F10.4°C 62% Calm Calm -- 29.79 in1008.8 mb 20.33 in516.4 mm 1.80 in45.7 mm 22.90 in581.7 mm
05:31 AM 54.7°F12.6°C 50.6°F10.3°C 61% Calm Calm -- 29.79 in1008.8 mb 20.30 in515.6 mm 0.00 in0.0 mm 22.87 in580.9 mm
05:30 AM 54.6°F12.6°C 50.6°F10.3°C 61% Calm Calm -- 29.79 in1008.8 mb 20.31 in515.9 mm 0.00 in0.0 mm 22.87 in580.9 mm
05:29 AM 54.6°F12.6°C 50.6°F10.3°C 61% Calm Calm -- 29.79 in1008.8 mb 20.33 in516.4 mm 0.00 in0.0 mm 22.87 in580.9 mm
05:28 AM 54.6°F12.6°C 50.5°F10.3°C 61% Calm Calm -- 29.79 in1008.8 mb 20.35 in516.9 mm 0.00 in0.0 mm 22.87 in580.9 mm
05:27 AM 54.5°F12.5°C 50.4°F10.2°C 61% Calm Calm -- 29.79 in1008.8 mb 20.35 in516.9 mm 0.00 in0.0 mm 22.87 in580.9 mm
05:26 AM 54.6°F12.6°C 50.5°F10.3°C 61% Calm Calm -- 29.79 in1008.8 mb 20.36 in517.1 mm 0.00 in0.0 mm 22.87 in580.9 mm
05:25 AM 54.6°F12.6°C 50.4°F10.2°C 61% Calm Calm -- 29.79 in1008.8 mb 20.38 in517.7 mm 0.60 in15.2 mm 22.87 in580.9 mm
05:24 AM 54.7°F12.6°C 50.2°F10.1°C 60% Calm Calm -- 29.79 in1008.8 mb 20.37 in517.4 mm 0.00 in0.0 mm 22.86 in580.6 mm
05:23 AM 54.7°F12.6°C 50.3°F10.2°C 61% Calm Calm -- 29.79 in1008.8 mb 20.37 in517.4 mm 0.00 in0.0 mm 22.86 in580.6 mm
05:22 AM 54.7°F12.6°C 50.3°F10.2°C 61% Calm Calm -- 29.79 in1008.8 mb 20.40 in518.2 mm 0.00 in0.0 mm 22.86 in580.6 mm
05:21 AM 54.8°F12.7°C 50.2°F10.1°C 60% Calm Calm -- 29.79 in1008.8 mb 20.40 in518.2 mm 0.00 in0.0 mm 22.86 in580.6 mm
05:20 AM 54.8°F12.7°C 50.3°F10.2°C 60% Calm Calm -- 29.79 in1008.8 mb 20.41 in518.4 mm 1.80 in45.7 mm 22.86 in580.6 mm
05:19 AM 54.8°F12.7°C 50.3°F10.2°C 61% Calm Calm -- 29.79 in1008.8 mb 20.38 in517.7 mm 1.20 in30.5 mm 22.83 in579.9 mm
05:18 AM 54.8°F12.7°C 50.4°F10.2°C 61% Calm Calm -- 29.79 in1008.8 mb 20.36 in517.1 mm 0.00 in0.0 mm 22.81 in579.4 mm
05:17 AM 54.8°F12.7°C 50.1°F10.1°C 60% Calm Calm -- 29.79 in1008.8 mb 20.36 in517.1 mm 4.20 in106.7 mm 22.81 in579.4 mm
05:16 AM 54.8°F12.7°C 50.4°F10.2°C 61% Calm Calm -- 29.80 in1009.1 mb 20.29 in515.4 mm 0.00 in0.0 mm 22.74 in577.6 mm
05:15 AM 54.7°F12.6°C 50.4°F10.2°C 61% Calm Calm -- 29.80 in1009.1 mb 20.30 in515.6 mm 0.00 in0.0 mm 22.74 in577.6 mm
05:14 AM 54.7°F12.6°C 50.3°F10.2°C 60% Calm Calm -- 29.79 in1008.8 mb 20.30 in515.6 mm 0.00 in0.0 mm 22.74 in577.6 mm
05:13 AM 54.7°F12.6°C 50.3°F10.2°C 60% Calm Calm -- 29.79 in1008.8 mb 20.31 in515.9 mm 0.60 in15.2 mm 22.74 in577.6 mm
05:12 AM 54.7°F12.6°C 50.4°F10.2°C 61% Calm Calm -- 29.79 in1008.8 mb 20.30 in515.6 mm 0.00 in0.0 mm 22.73 in577.3 mm
05:11 AM 54.6°F12.6°C 50.5°F10.3°C 61% Calm Calm -- 29.79 in1008.8 mb 20.39 in517.9 mm 1.80 in45.7 mm 22.73 in577.3 mm
05:10 AM 54.5°F12.5°C 50.4°F10.2°C 61% Calm Calm -- 29.79 in1008.8 mb 20.36 in517.1 mm 0.00 in0.0 mm 22.70 in576.6 mm
05:09 AM 54.6°F12.6°C 50.5°F10.3°C 61% Calm Calm -- 29.79 in1008.8 mb 20.38 in517.7 mm 0.60 in15.2 mm 22.70 in576.6 mm
05:08 AM 54.6°F12.6°C 50.5°F10.3°C 61% Calm Calm -- 29.79 in1008.8 mb 20.37 in517.4 mm 0.60 in15.2 mm 22.69 in576.3 mm
05:07 AM 54.6°F12.6°C 50.5°F10.3°C 61% Calm Calm -- 29.79 in1008.8 mb 20.36 in517.1 mm 0.00 in0.0 mm 22.68 in576.1 mm
05:06 AM 54.7°F12.6°C 50.5°F10.3°C 61% Calm Calm -- 29.79 in1008.8 mb 20.36 in517.1 mm 1.20 in30.5 mm 22.68 in576.1 mm
05:05 AM 54.8°F12.7°C 50.6°F10.3°C 61% Calm Calm -- 29.79 in1008.8 mb 20.34 in516.6 mm 0.00 in0.0 mm 22.66 in575.6 mm
05:04 AM 54.8°F12.7°C 50.2°F10.1°C 60% Calm Calm -- 29.79 in1008.8 mb 20.34 in516.6 mm 0.00 in0.0 mm 22.66 in575.6 mm
05:03 AM 54.8°F12.7°C 50.8°F10.4°C 61% Calm Calm -- 29.79 in1008.8 mb 20.35 in516.9 mm 0.00 in0.0 mm 22.66 in575.6 mm
05:02 AM 54.8°F12.7°C 50.5°F10.3°C 60% Calm Calm -- 29.79 in1008.8 mb 20.43 in518.9 mm 0.00 in0.0 mm 22.66 in575.6 mm
05:01 AM 54.8°F12.7°C 50.6°F10.3°C 61% Calm Calm -- 29.79 in1008.8 mb 20.43 in518.9 mm 0.00 in0.0 mm 22.66 in575.6 mm
04:59 AM 55.0°F12.8°C 50.1°F10.1°C 60% Calm Calm -- 29.79 in1008.8 mb 20.44 in519.2 mm 0.60 in15.2 mm 22.66 in575.6 mm
04:58 AM 54.8°F12.7°C 50.3°F10.2°C 60% Calm Calm -- 29.79 in1008.8 mb 20.43 in518.9 mm 0.60 in15.2 mm 22.65 in575.3 mm
04:57 AM 54.8°F12.7°C 50.5°F10.3°C 60% Calm Calm -- 29.79 in1008.8 mb 20.42 in518.7 mm 0.00 in0.0 mm 22.64 in575.1 mm
04:56 AM 54.7°F12.6°C 50.6°F10.3°C 61% Calm Calm -- 29.79 in1008.8 mb 20.43 in518.9 mm 1.80 in45.7 mm 22.64 in575.1 mm
04:55 AM 54.6°F12.6°C 50.2°F10.1°C 60% Calm Calm -- 29.79 in1008.8 mb 20.40 in518.2 mm 0.00 in0.0 mm 22.61 in574.3 mm
04:54 AM 54.6°F12.6°C 50.8°F10.4°C 61% Calm Calm -- 29.79 in1008.8 mb 20.42 in518.7 mm 0.00 in0.0 mm 22.61 in574.3 mm
04:53 AM 54.7°F12.6°C 51.1°F10.6°C 62% Calm Calm -- 29.79 in1008.8 mb 20.42 in518.7 mm 1.80 in45.7 mm 22.61 in574.3 mm
04:52 AM 54.7°F12.6°C 50.5°F10.3°C 60% Calm Calm -- 29.79 in1008.8 mb 20.39 in517.9 mm 0.00 in0.0 mm 22.58 in573.5 mm
04:51 AM 54.7°F12.6°C 50.9°F10.5°C 61% Calm Calm -- 29.79 in1008.8 mb 20.41 in518.4 mm 0.60 in15.2 mm 22.58 in573.5 mm
04:50 AM 54.7°F12.6°C 50.6°F10.3°C 60% Calm Calm -- 29.79 in1008.8 mb 20.40 in518.2 mm 0.60 in15.2 mm 22.57 in573.3 mm
04:49 AM 54.7°F12.6°C 50.6°F10.3°C 60% Calm Calm -- 29.79 in1008.8 mb 20.39 in517.9 mm 0.00 in0.0 mm 22.56 in573.0 mm
04:48 AM 54.7°F12.6°C 50.7°F10.4°C 61% Calm Calm -- 29.79 in1008.8 mb 20.41 in518.4 mm 0.00 in0.0 mm 22.56 in573.0 mm
04:47 AM 54.7°F12.6°C 50.7°F10.4°C 60% Calm Calm -- 29.78 in1008.5 mb 20.41 in518.4 mm 0.00 in0.0 mm 22.56 in573.0 mm
04:46 AM 54.6°F12.6°C 50.3°F10.2°C 59% Calm Calm -- 29.79 in1008.8 mb 20.43 in518.9 mm 0.00 in0.0 mm 22.56 in573.0 mm
04:45 AM 54.6°F12.6°C 50.8°F10.4°C 61% Calm Calm -- 29.78 in1008.5 mb 20.45 in519.4 mm 0.00 in0.0 mm 22.56 in573.0 mm
04:44 AM 54.6°F12.6°C 50.6°F10.3°C 60% Calm Calm -- 29.78 in1008.5 mb 20.46 in519.7 mm 0.00 in0.0 mm 22.56 in573.0 mm
04:43 AM 54.6°F12.6°C 50.9°F10.5°C 61% Calm Calm -- 29.78 in1008.5 mb 20.48 in520.2 mm 1.20 in30.5 mm 22.56 in573.0 mm
04:42 AM 54.6°F12.6°C 50.5°F10.3°C 60% Calm Calm -- 29.78 in1008.5 mb 20.46 in519.7 mm 0.00 in0.0 mm 22.54 in572.5 mm
04:41 AM 54.7°F12.6°C 51.2°F10.7°C 61% Calm Calm -- 29.78 in1008.5 mb 20.46 in519.7 mm 0.00 in0.0 mm 22.54 in572.5 mm
04:40 AM 54.7°F12.6°C 51.2°F10.7°C 61% Calm Calm -- 29.78 in1008.5 mb 20.49 in520.4 mm 1.80 in45.7 mm 22.54 in572.5 mm
04:39 AM 54.8°F12.7°C 51.3°F10.7°C 61% Calm Calm -- 29.78 in1008.5 mb 20.46 in519.7 mm 0.00 in0.0 mm 22.51 in571.8 mm
04:38 AM 54.8°F12.7°C 50.5°F10.3°C 60% Calm Calm -- 29.78 in1008.5 mb 20.48 in520.2 mm 0.00 in0.0 mm 22.51 in571.8 mm
04:37 AM 55.0°F12.8°C 51.1°F10.6°C 61% Calm Calm -- 29.78 in1008.5 mb 20.48 in520.2 mm 2.40 in61.0 mm 22.51 in571.8 mm
04:36 AM 55.1°F12.8°C 50.6°F10.3°C 60% Calm Calm -- 29.78 in1008.5 mb 20.44 in519.2 mm 1.80 in45.7 mm 22.47 in570.7 mm
04:35 AM 55.1°F12.8°C 51.2°F10.7°C 61% Calm Calm -- 29.78 in1008.5 mb 20.41 in518.4 mm 1.80 in45.7 mm 22.44 in570.0 mm
04:34 AM 55.1°F12.8°C 50.7°F10.4°C 60% Calm Calm -- 29.78 in1008.5 mb 20.38 in517.7 mm 0.00 in0.0 mm 22.41 in569.2 mm
04:33 AM 55.1°F12.8°C 51.4°F10.8°C 61% Calm Calm -- 29.78 in1008.5 mb 20.39 in517.9 mm 0.60 in15.2 mm 22.41 in569.2 mm
04:32 AM 55.1°F12.8°C 51.1°F10.6°C 61% Calm Calm -- 29.78 in1008.5 mb 20.38 in517.7 mm 0.00 in0.0 mm 22.40 in569.0 mm
04:31 AM 55.1°F12.8°C 51.4°F10.8°C 61% Calm Calm -- 29.78 in1008.5 mb 20.40 in518.2 mm 0.60 in15.2 mm 22.40 in569.0 mm
04:30 AM 55.1°F12.8°C 51.2°F10.7°C 61% Calm Calm -- 29.78 in1008.5 mb 20.39 in517.9 mm 0.00 in0.0 mm 22.39 in568.7 mm
04:29 AM 55.1°F12.8°C 50.9°F10.5°C 60% Calm Calm -- 29.78 in1008.5 mb 20.42 in518.7 mm 1.20 in30.5 mm 22.39 in568.7 mm
04:28 AM 55.1°F12.8°C 51.1°F10.6°C 60% Calm Calm -- 29.78 in1008.5 mb 20.40 in518.2 mm 1.80 in45.7 mm 22.37 in568.2 mm
04:27 AM 55.1°F12.8°C 51.3°F10.7°C 61% Calm Calm -- 29.78 in1008.5 mb 20.37 in517.4 mm 0.00 in0.0 mm 22.34 in567.4 mm
04:26 AM 55.1°F12.8°C 50.7°F10.4°C 59% Calm Calm -- 29.78 in1008.5 mb 20.40 in518.2 mm 1.20 in30.5 mm 22.34 in567.4 mm
04:25 AM 55.1°F12.8°C 50.9°F10.5°C 60% Calm Calm -- 29.78 in1008.5 mb 20.38 in517.7 mm 1.20 in30.5 mm 22.32 in566.9 mm
04:24 AM 55.2°F12.9°C 51.4°F10.8°C 61% Calm Calm -- 29.78 in1008.5 mb 20.36 in517.1 mm 0.00 in0.0 mm 22.30 in566.4 mm
04:23 AM 55.2°F12.9°C 51.0°F10.6°C 60% Calm Calm -- 29.78 in1008.5 mb 20.37 in517.4 mm 0.00 in0.0 mm 22.30 in566.4 mm
04:22 AM 55.2°F12.9°C 51.1°F10.6°C 60% Calm Calm -- 29.78 in1008.5 mb 20.37 in517.4 mm 0.00 in0.0 mm 22.30 in566.4 mm
04:21 AM 55.2°F12.9°C 51.4°F10.8°C 61% Calm Calm -- 29.78 in1008.5 mb 20.40 in518.2 mm 1.20 in30.5 mm 22.30 in566.4 mm
04:20 AM 55.1°F12.8°C 52.0°F11.1°C 62% Calm Calm -- 29.78 in1008.5 mb 20.38 in517.7 mm 0.00 in0.0 mm 22.28 in565.9 mm
04:19 AM 55.1°F12.8°C 51.8°F11.0°C 62% Calm Calm -- 29.78 in1008.5 mb 20.40 in518.2 mm 0.00 in0.0 mm 22.28 in565.9 mm
04:18 AM 55.2°F12.9°C 52.0°F11.1°C 62% Calm Calm -- 29.78 in1008.5 mb 20.44 in519.2 mm 0.60 in15.2 mm 22.28 in565.9 mm
04:17 AM 55.3°F12.9°C 51.9°F11.1°C 62% Calm Calm -- 29.78 in1008.5 mb 20.43 in518.9 mm 0.00 in0.0 mm 22.27 in565.7 mm
04:16 AM 55.3°F12.9°C 51.9°F11.1°C 62% Calm Calm -- 29.78 in1008.5 mb 20.49 in520.4 mm 1.80 in45.7 mm 22.27 in565.7 mm
04:15 AM 55.2°F12.9°C 51.5°F10.8°C 61% Calm Calm -- 29.78 in1008.5 mb 20.46 in519.7 mm 1.20 in30.5 mm 22.24 in564.9 mm
04:14 AM 55.3°F12.9°C 51.6°F10.9°C 61% Calm Calm -- 29.78 in1008.5 mb 20.44 in519.2 mm 0.00 in0.0 mm 22.22 in564.4 mm
04:13 AM 55.3°F12.9°C 51.6°F10.9°C 61% Calm Calm -- 29.78 in1008.5 mb 20.47 in519.9 mm 1.20 in30.5 mm 22.22 in564.4 mm
04:12 AM 55.3°F12.9°C 52.2°F11.2°C 62% Calm Calm -- 29.78 in1008.5 mb 20.45 in519.4 mm 0.60 in15.2 mm 22.20 in563.9 mm
04:11 AM 55.3°F12.9°C 52.0°F11.1°C 62% Calm Calm -- 29.78 in1008.5 mb 20.44 in519.2 mm 2.40 in61.0 mm 22.19 in563.6 mm
04:10 AM 55.2°F12.9°C 52.1°F11.2°C 62% Calm Calm -- 29.78 in1008.5 mb 20.40 in518.2 mm 1.20 in30.5 mm 22.15 in562.6 mm
04:09 AM 55.3°F12.9°C 51.2°F10.7°C 60% Calm Calm -- 29.78 in1008.5 mb 20.38 in517.7 mm 0.00 in0.0 mm 22.13 in562.1 mm
04:08 AM 55.3°F12.9°C 51.0°F10.6°C 59% Calm Calm -- 29.78 in1008.5 mb 20.39 in517.9 mm 0.00 in0.0 mm 22.13 in562.1 mm
04:07 AM 55.2°F12.9°C 51.3°F10.7°C 60% Calm Calm -- 29.78 in1008.5 mb 20.40 in518.2 mm 0.60 in15.2 mm 22.13 in562.1 mm
04:06 AM 55.2°F12.9°C 51.5°F10.8°C 60% Calm Calm -- 29.78 in1008.5 mb 20.39 in517.9 mm 0.00 in0.0 mm 22.12 in561.8 mm
04:05 AM 55.3°F12.9°C 51.5°F10.8°C 60% Calm Calm -- 29.78 in1008.5 mb 20.41 in518.4 mm 0.00 in0.0 mm 22.12 in561.8 mm
04:04 AM 55.3°F12.9°C 51.7°F10.9°C 61% Calm Calm -- 29.78 in1008.5 mb 20.42 in518.7 mm 0.60 in15.2 mm 22.12 in561.8 mm
04:03 AM 55.4°F13.0°C 52.1°F11.2°C 62% Calm Calm -- 29.78 in1008.5 mb 20.41 in518.4 mm 0.60 in15.2 mm 22.11 in561.6 mm
04:02 AM 55.4°F13.0°C 51.9°F11.1°C 61% Calm Calm -- 29.78 in1008.5 mb 20.40 in518.2 mm 0.00 in0.0 mm 22.10 in561.3 mm
04:01 AM 55.4°F13.0°C 52.0°F11.1°C 62% Calm Calm -- 29.78 in1008.5 mb 20.43 in518.9 mm 0.01 in0.3 mm 22.10 in561.3 mm
03:59 AM 55.4°F13.0°C 52.1°F11.2°C 62% Calm Calm -- 29.78 in1008.5 mb 20.42 in518.7 mm 1.20 in30.5 mm 22.09 in561.1 mm
03:58 AM 55.5°F13.1°C 52.0°F11.1°C 61% Calm Calm -- 29.78 in1008.5 mb 20.40 in518.2 mm 0.00 in0.0 mm 22.07 in560.6 mm
03:57 AM 55.5°F13.1°C 52.3°F11.3°C 62% Calm Calm -- 29.78 in1008.5 mb 20.40 in518.2 mm 0.00 in0.0 mm 22.07 in560.6 mm
03:56 AM 55.6°F13.1°C 52.3°F11.3°C 62% Calm Calm -- 29.78 in1008.5 mb 20.42 in518.7 mm 0.00 in0.0 mm 22.07 in560.6 mm
03:55 AM 55.6°F13.1°C 51.9°F11.1°C 61% Calm Calm -- 29.78 in1008.5 mb 20.43 in518.9 mm 0.00 in0.0 mm 22.07 in560.6 mm
03:54 AM 55.6°F13.1°C 52.1°F11.2°C 62% Calm Calm -- 29.78 in1008.5 mb 20.43 in518.9 mm 0.60 in15.2 mm 22.07 in560.6 mm
03:53 AM 55.6°F13.1°C 52.2°F11.2°C 62% Calm Calm -- 29.78 in1008.5 mb 20.42 in518.7 mm 0.00 in0.0 mm 22.06 in560.3 mm
03:52 AM 55.6°F13.1°C 52.2°F11.2°C 62% Calm Calm -- 29.78 in1008.5 mb 20.42 in518.7 mm 0.00 in0.0 mm 22.06 in560.3 mm
03:51 AM 55.6°F13.1°C 52.3°F11.3°C 62% Calm Calm -- 29.78 in1008.5 mb 20.42 in518.7 mm 0.00 in0.0 mm 22.06 in560.3 mm
03:50 AM 55.7°F13.2°C 52.3°F11.3°C 62% Calm Calm -- 29.78 in1008.5 mb 20.44 in519.2 mm 1.20 in30.5 mm 22.06 in560.3 mm
03:49 AM 55.7°F13.2°C 52.4°F11.3°C 62% Calm Calm -- 29.78 in1008.5 mb 20.42 in518.7 mm 1.20 in30.5 mm 22.04 in559.8 mm
03:48 AM 55.7°F13.2°C 52.0°F11.1°C 61% Calm Calm -- 29.78 in1008.5 mb 20.40 in518.2 mm 0.60 in15.2 mm 22.02 in559.3 mm
03:47 AM 55.7°F13.2°C 52.2°F11.2°C 61% Calm Calm -- 29.78 in1008.5 mb 20.39 in517.9 mm 0.00 in0.0 mm 22.01 in559.1 mm
03:46 AM 55.7°F13.2°C 52.2°F11.2°C 61% Calm Calm -- 29.78 in1008.5 mb 20.39 in517.9 mm 0.00 in0.0 mm 22.01 in559.1 mm
03:45 AM 55.7°F13.2°C 52.2°F11.2°C 61% Calm Calm -- 29.78 in1008.5 mb 20.40 in518.2 mm 0.00 in0.0 mm 22.01 in559.1 mm
03:44 AM 55.7°F13.2°C 52.3°F11.3°C 62% Calm Calm -- 29.78 in1008.5 mb 20.40 in518.2 mm 0.60 in15.2 mm 22.01 in559.1 mm
03:43 AM 55.9°F13.3°C 51.9°F11.1°C 61% Calm Calm -- 29.78 in1008.5 mb 20.39 in517.9 mm 0.00 in0.0 mm 22.00 in558.8 mm
03:42 AM 55.7°F13.2°C 52.4°F11.3°C 62% Calm Calm -- 29.78 in1008.5 mb 20.39 in517.9 mm 0.60 in15.2 mm 22.00 in558.8 mm
03:41 AM 55.7°F13.2°C 52.4°F11.3°C 62% Calm Calm -- 29.78 in1008.5 mb 20.38 in517.7 mm 1.80 in45.7 mm 21.99 in558.5 mm
03:40 AM 55.6°F13.1°C 52.1°F11.2°C 61% Calm Calm -- 29.78 in1008.5 mb 20.35 in516.9 mm 0.00 in0.0 mm 21.96 in557.8 mm
03:39 AM 55.6°F13.1°C 51.3°F10.7°C 59% Calm Calm -- 29.78 in1008.5 mb 20.37 in517.4 mm 0.60 in15.2 mm 21.96 in557.8 mm
03:38 AM 55.7°F13.2°C 51.6°F10.9°C 60% Calm Calm -- 29.78 in1008.5 mb 20.36 in517.1 mm 0.00 in0.0 mm 21.95 in557.5 mm
03:37 AM 55.9°F13.3°C 51.6°F10.9°C 60% Calm Calm -- 29.78 in1008.5 mb 20.36 in517.1 mm 0.00 in0.0 mm 21.95 in557.5 mm
03:36 AM 55.9°F13.3°C 51.6°F10.9°C 60% Calm Calm -- 29.78 in1008.5 mb 20.36 in517.1 mm 0.00 in0.0 mm 21.95 in557.5 mm
03:35 AM 55.9°F13.3°C 51.7°F10.9°C 60% Calm Calm -- 29.78 in1008.5 mb 20.37 in517.4 mm 0.00 in0.0 mm 21.95 in557.5 mm
03:34 AM 56.0°F13.3°C 51.7°F10.9°C 60% Calm Calm -- 29.78 in1008.5 mb 20.39 in517.9 mm 0.60 in15.2 mm 21.95 in557.5 mm
03:33 AM 56.0°F13.3°C 51.7°F10.9°C 60% Calm Calm -- 29.78 in1008.5 mb 20.38 in517.7 mm 1.20 in30.5 mm 21.94 in557.3 mm
03:32 AM 56.0°F13.3°C 51.8°F11.0°C 60% Calm Calm -- 29.78 in1008.5 mb 20.36 in517.1 mm 1.80 in45.7 mm 21.92 in556.8 mm
03:31 AM 55.9°F13.3°C 51.9°F11.1°C 60% Calm Calm -- 29.78 in1008.5 mb 20.33 in516.4 mm 0.00 in0.0 mm 21.89 in556.0 mm
03:30 AM 55.7°F13.2°C 51.9°F11.1°C 60% Calm Calm -- 29.78 in1008.5 mb 20.33 in516.4 mm 3.00 in76.2 mm 21.89 in556.0 mm
03:29 AM 55.7°F13.2°C 52.2°F11.2°C 61% Calm Calm -- 29.78 in1008.5 mb 20.28 in515.1 mm 0.60 in15.2 mm 21.84 in554.7 mm
03:28 AM 55.9°F13.3°C 52.2°F11.2°C 61% Calm Calm -- 29.78 in1008.5 mb 20.27 in514.9 mm 0.00 in0.0 mm 21.83 in554.5 mm
03:27 AM 55.9°F13.3°C 52.3°F11.3°C 61% Calm Calm -- 29.78 in1008.5 mb 20.28 in515.1 mm 1.20 in30.5 mm 21.83 in554.5 mm
03:26 AM 56.0°F13.3°C 52.2°F11.2°C 61% Calm Calm -- 29.78 in1008.5 mb 20.26 in514.6 mm 0.00 in0.0 mm 21.81 in554.0 mm
03:25 AM 55.9°F13.3°C 52.4°F11.3°C 61% Calm Calm -- 29.78 in1008.5 mb 20.26 in514.6 mm 0.00 in0.0 mm 21.81 in554.0 mm
03:24 AM 56.0°F13.3°C 52.5°F11.4°C 61% Calm Calm -- 29.78 in1008.5 mb 20.27 in514.9 mm 1.20 in30.5 mm 21.81 in554.0 mm
03:23 AM 56.0°F13.3°C 52.4°F11.3°C 61% Calm Calm -- 29.78 in1008.5 mb 20.25 in514.4 mm 1.80 in45.7 mm 21.79 in553.5 mm
03:22 AM 56.0°F13.3°C 52.5°F11.4°C 61% Calm Calm -- 29.78 in1008.5 mb 20.22 in513.6 mm 1.20 in30.5 mm 21.76 in552.7 mm
03:21 AM 56.0°F13.3°C 52.7°F11.5°C 62% Calm Calm -- 29.78 in1008.5 mb 20.20 in513.1 mm 0.00 in0.0 mm 21.74 in552.2 mm
03:20 AM 56.1°F13.4°C 52.7°F11.5°C 62% Calm Calm -- 29.78 in1008.5 mb 20.20 in513.1 mm 0.00 in0.0 mm 21.74 in552.2 mm
03:19 AM 56.1°F13.4°C 52.6°F11.4°C 61% Calm Calm -- 29.78 in1008.5 mb 20.23 in513.8 mm 1.20 in30.5 mm 21.74 in552.2 mm
03:18 AM 56.1°F13.4°C 52.7°F11.5°C 61% Calm Calm -- 29.77 in1008.1 mb 20.21 in513.3 mm 0.00 in0.0 mm 21.72 in551.7 mm
03:17 AM 56.1°F13.4°C 52.8°F11.6°C 62% Calm Calm -- 29.77 in1008.1 mb 20.23 in513.8 mm 1.80 in45.7 mm 21.72 in551.7 mm
03:16 AM 56.1°F13.4°C 52.7°F11.5°C 61% Calm Calm -- 29.77 in1008.1 mb 20.20 in513.1 mm 0.00 in0.0 mm 21.69 in550.9 mm
03:15 AM 56.2°F13.4°C 52.9°F11.6°C 62% Calm Calm -- 29.77 in1008.1 mb 20.21 in513.3 mm 0.00 in0.0 mm 21.69 in550.9 mm
03:14 AM 56.2°F13.4°C 52.9°F11.6°C 62% Calm Calm -- 29.77 in1008.1 mb 20.22 in513.6 mm 1.80 in45.7 mm 21.69 in550.9 mm
03:13 AM 56.3°F13.5°C 52.7°F11.5°C 61% Calm Calm -- 29.77 in1008.1 mb 20.19 in512.8 mm 0.00 in0.0 mm 21.66 in550.2 mm
03:12 AM 56.3°F13.5°C 52.8°F11.6°C 62% Calm Calm -- 29.77 in1008.1 mb 20.21 in513.3 mm 0.60 in15.2 mm 21.66 in550.2 mm
03:11 AM 56.3°F13.5°C 52.9°F11.6°C 62% Calm Calm -- 29.77 in1008.1 mb 20.20 in513.1 mm 0.00 in0.0 mm 21.65 in549.9 mm
03:10 AM 56.3°F13.5°C 52.8°F11.6°C 61% Calm Calm -- 29.77 in1008.1 mb 20.24 in514.1 mm 0.00 in0.0 mm 21.65 in549.9 mm
03:09 AM 56.3°F13.5°C 52.8°F11.6°C 61% Calm Calm -- 29.77 in1008.1 mb 20.28 in515.1 mm 1.20 in30.5 mm 21.65 in549.9 mm
03:08 AM 56.3°F13.5°C 52.6°F11.4°C 61% Calm Calm -- 29.77 in1008.1 mb 20.26 in514.6 mm 0.60 in15.2 mm 21.63 in549.4 mm
03:07 AM 56.4°F13.6°C 52.7°F11.5°C 61% Calm Calm -- 29.77 in1008.1 mb 20.25 in514.4 mm 0.00 in0.0 mm 21.62 in549.1 mm
03:06 AM 56.4°F13.6°C 52.6°F11.4°C 61% Calm Calm -- 29.77 in1008.1 mb 20.28 in515.1 mm 0.60 in15.2 mm 21.62 in549.1 mm
03:05 AM 56.4°F13.6°C 53.0°F11.7°C 62% Calm Calm -- 29.77 in1008.1 mb 20.27 in514.9 mm 1.80 in45.7 mm 21.61 in548.9 mm
03:04 AM 56.4°F13.6°C 52.7°F11.5°C 61% Calm Calm -- 29.77 in1008.1 mb 20.24 in514.1 mm 0.00 in0.0 mm 21.58 in548.1 mm
03:03 AM 56.4°F13.6°C 52.6°F11.4°C 61% Calm Calm -- 29.77 in1008.1 mb 20.24 in514.1 mm 0.60 in15.2 mm 21.58 in548.1 mm
03:02 AM 56.4°F13.6°C 52.8°F11.6°C 61% Calm Calm -- 29.77 in1008.1 mb 20.23 in513.8 mm 0.00 in0.0 mm 21.57 in547.9 mm
03:01 AM 56.4°F13.6°C 53.0°F11.7°C 62% Calm Calm -- 29.77 in1008.1 mb 20.23 in513.8 mm 0.00 in0.0 mm 21.57 in547.9 mm
02:59 AM 56.4°F13.6°C 53.0°F11.7°C 62% Calm Calm -- 29.77 in1008.1 mb 20.25 in514.4 mm 0.00 in0.0 mm 21.57 in547.9 mm
02:58 AM 56.4°F13.6°C 53.0°F11.7°C 61% Calm Calm -- 29.77 in1008.1 mb 20.26 in514.6 mm 0.00 in0.0 mm 21.57 in547.9 mm
02:57 AM 56.4°F13.6°C 53.0°F11.7°C 62% Calm Calm -- 29.77 in1008.1 mb 20.28 in515.1 mm 1.80 in45.7 mm 21.57 in547.9 mm
02:56 AM 56.4°F13.6°C 53.2°F11.8°C 62% Calm Calm -- 29.77 in1008.1 mb 20.25 in514.4 mm 0.60 in15.2 mm 21.54 in547.1 mm
02:55 AM 56.4°F13.6°C 52.2°F11.2°C 60% Calm Calm -- 29.77 in1008.1 mb 20.24 in514.1 mm 1.20 in30.5 mm 21.53 in546.9 mm
02:54 AM 56.5°F13.6°C 52.3°F11.3°C 60% Calm Calm -- 29.77 in1008.1 mb 20.22 in513.6 mm 1.20 in30.5 mm 21.51 in546.4 mm
02:53 AM 56.5°F13.6°C 52.5°F11.4°C 60% Calm Calm -- 29.77 in1008.1 mb 20.20 in513.1 mm 0.00 in0.0 mm 21.49 in545.8 mm
02:52 AM 56.5°F13.6°C 52.4°F11.3°C 60% Calm Calm -- 29.77 in1008.1 mb 20.23 in513.8 mm 0.00 in0.0 mm 21.49 in545.8 mm
02:51 AM 56.6°F13.7°C 52.5°F11.4°C 60% Calm Calm -- 29.77 in1008.1 mb 20.23 in513.8 mm 1.80 in45.7 mm 21.49 in545.8 mm
02:50 AM 56.8°F13.8°C 52.4°F11.3°C 60% Calm Calm -- 29.77 in1008.1 mb 20.20 in513.1 mm 0.00 in0.0 mm 21.46 in545.1 mm
02:49 AM 56.6°F13.7°C 52.4°F11.3°C 60% Calm Calm -- 29.77 in1008.1 mb 20.23 in513.8 mm 0.00 in0.0 mm 21.46 in545.1 mm
02:48 AM 56.6°F13.7°C 52.3°F11.3°C 60% Calm Calm -- 29.77 in1008.1 mb 20.25 in514.4 mm 0.00 in0.0 mm 21.46 in545.1 mm
02:47 AM 56.6°F13.7°C 52.2°F11.2°C 59% Calm Calm -- 29.77 in1008.1 mb 20.26 in514.6 mm 1.20 in30.5 mm 21.46 in545.1 mm
02:46 AM 56.5°F13.6°C 52.3°F11.3°C 60% Calm Calm -- 29.77 in1008.1 mb 20.24 in514.1 mm 0.60 in15.2 mm 21.44 in544.6 mm
02:45 AM 56.5°F13.6°C 52.3°F11.3°C 60% Calm Calm -- 29.77 in1008.1 mb 20.23 in513.8 mm 1.20 in30.5 mm 21.43 in544.3 mm
02:44 AM 56.5°F13.6°C 52.3°F11.3°C 60% Calm Calm -- 29.77 in1008.1 mb 20.21 in513.3 mm 0.00 in0.0 mm 21.41 in543.8 mm
02:43 AM 56.5°F13.6°C 52.3°F11.3°C 60% Calm Calm -- 29.77 in1008.1 mb 20.21 in513.3 mm 0.00 in0.0 mm 21.41 in543.8 mm
02:42 AM 56.4°F13.6°C 52.4°F11.3°C 60% Calm Calm -- 29.77 in1008.1 mb 20.21 in513.3 mm 0.00 in0.0 mm 21.41 in543.8 mm
02:41 AM 56.4°F13.6°C 52.3°F11.3°C 59% Calm Calm -- 29.77 in1008.1 mb 20.22 in513.6 mm 0.00 in0.0 mm 21.41 in543.8 mm
02:40 AM 56.4°F13.6°C 52.4°F11.3°C 60% Calm Calm -- 29.77 in1008.1 mb 20.26 in514.6 mm 0.00 in0.0 mm 21.41 in543.8 mm
02:39 AM 56.4°F13.6°C 52.4°F11.3°C 60% Calm Calm -- 29.77 in1008.1 mb 20.26 in514.6 mm 0.00 in0.0 mm 21.41 in543.8 mm
02:38 AM 56.4°F13.6°C 52.4°F11.3°C 60% Calm Calm -- 29.77 in1008.1 mb 20.28 in515.1 mm 0.00 in0.0 mm 21.41 in543.8 mm
02:37 AM 56.4°F13.6°C 52.3°F11.3°C 59% Calm Calm -- 29.77 in1008.1 mb 20.28 in515.1 mm 0.00 in0.0 mm 21.41 in543.8 mm
02:36 AM 56.5°F13.6°C 52.4°F11.3°C 60% Calm Calm -- 29.77 in1008.1 mb 20.28 in515.1 mm 0.00 in0.0 mm 21.41 in543.8 mm
02:35 AM 56.5°F13.6°C 52.3°F11.3°C 59% Calm Calm -- 29.77 in1008.1 mb 20.29 in515.4 mm 0.60 in15.2 mm 21.41 in543.8 mm
02:34 AM 56.6°F13.7°C 52.4°F11.3°C 59% Calm Calm -- 29.77 in1008.1 mb 20.28 in515.1 mm 0.00 in0.0 mm 21.40 in543.6 mm
02:33 AM 56.6°F13.7°C 52.4°F11.3°C 59% Calm Calm -- 29.77 in1008.1 mb 20.28 in515.1 mm 0.60 in15.2 mm 21.40 in543.6 mm
02:32 AM 56.8°F13.8°C 52.4°F11.3°C 59% Calm Calm -- 29.77 in1008.1 mb 20.27 in514.9 mm 0.00 in0.0 mm 21.39 in543.3 mm
02:31 AM 56.6°F13.7°C 52.4°F11.3°C 59% Calm Calm -- 29.77 in1008.1 mb 20.30 in515.6 mm 1.20 in30.5 mm 21.39 in543.3 mm
02:30 AM 56.6°F13.7°C 52.4°F11.3°C 59% Calm Calm -- 29.77 in1008.1 mb 20.28 in515.1 mm 0.00 in0.0 mm 21.37 in542.8 mm
02:29 AM 56.6°F13.7°C 52.3°F11.3°C 59% Calm Calm -- 29.77 in1008.1 mb 20.31 in515.9 mm 0.00 in0.0 mm 21.37 in542.8 mm
02:28 AM 56.6°F13.7°C 52.4°F11.3°C 59% Calm Calm -- 29.77 in1008.1 mb 20.31 in515.9 mm 0.00 in0.0 mm 21.37 in542.8 mm
02:27 AM 56.6°F13.7°C 52.4°F11.3°C 59% Calm Calm -- 29.77 in1008.1 mb 20.31 in515.9 mm 0.00 in0.0 mm 21.37 in542.8 mm
02:26 AM 56.6°F13.7°C 52.4°F11.3°C 59% Calm Calm -- 29.77 in1008.1 mb 20.32 in516.1 mm 0.00 in0.0 mm 21.37 in542.8 mm
02:25 AM 56.6°F13.7°C 52.4°F11.3°C 59% Calm Calm -- 29.77 in1008.1 mb 20.32 in516.1 mm 0.00 in0.0 mm 21.37 in542.8 mm
02:24 AM 56.6°F13.7°C 52.4°F11.3°C 59% Calm Calm -- 29.77 in1008.1 mb 20.33 in516.4 mm 0.00 in0.0 mm 21.37 in542.8 mm
02:23 AM 56.6°F13.7°C 52.4°F11.3°C 59% Calm Calm -- 29.77 in1008.1 mb 20.37 in517.4 mm 0.00 in0.0 mm 21.37 in542.8 mm
02:22 AM 56.6°F13.7°C 52.5°F11.4°C 59% Calm Calm -- 29.77 in1008.1 mb 20.40 in518.2 mm 0.00 in0.0 mm 21.37 in542.8 mm
02:21 AM 56.6°F13.7°C 52.5°F11.4°C 59% Calm Calm -- 29.76 in1007.8 mb 20.42 in518.7 mm 0.60 in15.2 mm 21.37 in542.8 mm
02:20 AM 56.6°F13.7°C 52.4°F11.3°C 59% Calm Calm -- 29.76 in1007.8 mb 20.41 in518.4 mm 0.60 in15.2 mm 21.36 in542.5 mm
02:19 AM 56.6°F13.7°C 52.4°F11.3°C 59% Calm Calm -- 29.77 in1008.1 mb 20.40 in518.2 mm 0.00 in0.0 mm 21.35 in542.3 mm
02:18 AM 56.8°F13.8°C 52.4°F11.3°C 59% Calm Calm -- 29.76 in1007.8 mb 20.40 in518.2 mm 0.60 in15.2 mm 21.35 in542.3 mm
02:17 AM 56.8°F13.8°C 52.4°F11.3°C 59% Calm Calm -- 29.76 in1007.8 mb 20.39 in517.9 mm 0.00 in0.0 mm 21.34 in542.0 mm
02:16 AM 56.8°F13.8°C 52.4°F11.3°C 59% Calm Calm -- 29.76 in1007.8 mb 20.42 in518.7 mm 0.60 in15.2 mm 21.34 in542.0 mm
02:15 AM 56.8°F13.8°C 52.4°F11.3°C 59% Calm Calm -- 29.76 in1007.8 mb 20.41 in518.4 mm 0.00 in0.0 mm 21.33 in541.8 mm
02:14 AM 56.8°F13.8°C 52.3°F11.3°C 59% Calm Calm -- 29.76 in1007.8 mb 20.43 in518.9 mm 0.00 in0.0 mm 21.33 in541.8 mm
02:13 AM 56.8°F13.8°C 52.3°F11.3°C 59% Calm Calm -- 29.76 in1007.8 mb 20.46 in519.7 mm 0.60 in15.2 mm 21.33 in541.8 mm
02:12 AM 56.9°F13.8°C 52.4°F11.3°C 59% Calm Calm -- 29.76 in1007.8 mb 20.45 in519.4 mm 1.20 in30.5 mm 21.32 in541.5 mm
02:11 AM 56.9°F13.8°C 52.4°F11.3°C 59% Calm Calm -- 29.76 in1007.8 mb 20.43 in518.9 mm 0.00 in0.0 mm 21.30 in541.0 mm
02:10 AM 57.0°F13.9°C 52.4°F11.3°C 59% Calm Calm -- 29.76 in1007.8 mb 20.43 in518.9 mm 1.20 in30.5 mm 21.30 in541.0 mm
02:09 AM 57.0°F13.9°C 52.4°F11.3°C 59% Calm Calm -- 29.76 in1007.8 mb 20.41 in518.4 mm 0.00 in0.0 mm 21.28 in540.5 mm
02:08 AM 57.1°F13.9°C 52.4°F11.3°C 59% Calm Calm -- 29.76 in1007.8 mb 20.41 in518.4 mm 0.00 in0.0 mm 21.28 in540.5 mm
02:07 AM 57.1°F13.9°C 52.4°F11.3°C 59% Calm Calm -- 29.77 in1008.1 mb 20.41 in518.4 mm 1.20 in30.5 mm 21.28 in540.5 mm
02:06 AM 57.2°F14.0°C 52.4°F11.3°C 59% Calm Calm -- 29.77 in1008.1 mb 20.39 in517.9 mm 0.00 in0.0 mm 21.26 in540.0 mm
02:05 AM 57.2°F14.0°C 52.4°F11.3°C 59% Calm Calm -- 29.77 in1008.1 mb 20.40 in518.2 mm 0.00 in0.0 mm 21.26 in540.0 mm
02:04 AM 57.2°F14.0°C 52.4°F11.3°C 59% Calm Calm -- 29.77 in1008.1 mb 20.41 in518.4 mm 0.00 in0.0 mm 21.26 in540.0 mm
02:03 AM 57.2°F14.0°C 52.4°F11.3°C 58% Calm Calm -- 29.77 in1008.1 mb 20.41 in518.4 mm 0.00 in0.0 mm 21.26 in540.0 mm
02:02 AM 57.2°F14.0°C 52.4°F11.3°C 58% Calm Calm -- 29.77 in1008.1 mb 20.44 in519.2 mm 0.60 in15.2 mm 21.26 in540.0 mm
02:01 AM 57.2°F14.0°C 52.5°F11.4°C 59% Calm Calm -- 29.77 in1008.1 mb 20.43 in518.9 mm 0.08 in2.0 mm 21.25 in539.8 mm
01:59 AM 57.3°F14.1°C 52.5°F11.4°C 59% Calm Calm -- 29.76 in1007.8 mb 20.35 in516.9 mm 0.60 in15.2 mm 21.17 in537.7 mm
01:58 AM 57.3°F14.1°C 52.4°F11.3°C 58% Calm Calm -- 29.76 in1007.8 mb 20.34 in516.6 mm 0.60 in15.2 mm 21.16 in537.5 mm
01:57 AM 57.2°F14.0°C 52.5°F11.4°C 59% Calm Calm -- 29.76 in1007.8 mb 20.33 in516.4 mm 0.00 in0.0 mm 21.15 in537.2 mm
01:56 AM 57.2°F14.0°C 52.5°F11.4°C 58% Calm Calm -- 29.76 in1007.8 mb 20.35 in516.9 mm 0.00 in0.0 mm 21.15 in537.2 mm
01:55 AM 57.2°F14.0°C 52.5°F11.4°C 58% Calm Calm -- 29.76 in1007.8 mb 20.35 in516.9 mm 0.00 in0.0 mm 21.15 in537.2 mm
01:54 AM 57.2°F14.0°C 52.5°F11.4°C 59% Calm Calm -- 29.76 in1007.8 mb 20.35 in516.9 mm 0.00 in0.0 mm 21.15 in537.2 mm
01:53 AM 57.2°F14.0°C 52.5°F11.4°C 58% Calm Calm -- 29.76 in1007.8 mb 20.39 in517.9 mm 0.60 in15.2 mm 21.15 in537.2 mm
01:52 AM 57.3°F14.1°C 52.5°F11.4°C 58% Calm Calm -- 29.76 in1007.8 mb 20.38 in517.7 mm 1.20 in30.5 mm 21.14 in537.0 mm
01:51 AM 57.3°F14.1°C 52.5°F11.4°C 58% Calm Calm -- 29.76 in1007.8 mb 20.36 in517.1 mm 0.00 in0.0 mm 21.12 in536.4 mm
01:50 AM 57.3°F14.1°C 52.5°F11.4°C 58% Calm Calm -- 29.76 in1007.8 mb 20.38 in517.7 mm 0.60 in15.2 mm 21.12 in536.4 mm
01:49 AM 57.3°F14.1°C 52.5°F11.4°C 58% Calm Calm -- 29.76 in1007.8 mb 20.37 in517.4 mm 0.60 in15.2 mm 21.11 in536.2 mm
01:48 AM 57.3°F14.1°C 52.5°F11.4°C 58% Calm Calm -- 29.76 in1007.8 mb 20.36 in517.1 mm 0.00 in0.0 mm 21.10 in535.9 mm
01:47 AM 57.2°F14.0°C 52.5°F11.4°C 58% Calm Calm -- 29.76 in1007.8 mb 20.37 in517.4 mm 0.00 in0.0 mm 21.10 in535.9 mm
01:46 AM 57.1°F13.9°C 52.5°F11.4°C 58% Calm Calm -- 29.76 in1007.8 mb 20.37 in517.4 mm 0.60 in15.2 mm 21.10 in535.9 mm
01:45 AM 57.1°F13.9°C 52.6°F11.4°C 58% Calm Calm -- 29.76 in1007.8 mb 20.36 in517.1 mm 0.00 in0.0 mm 21.09 in535.7 mm
01:44 AM 57.1°F13.9°C 52.5°F11.4°C 58% Calm Calm -- 29.76 in1007.8 mb 20.37 in517.4 mm 0.60 in15.2 mm 21.09 in535.7 mm
01:43 AM 57.2°F14.0°C 52.5°F11.4°C 58% Calm Calm -- 29.76 in1007.8 mb 20.36 in517.1 mm 0.00 in0.0 mm 21.08 in535.4 mm
01:42 AM 57.3°F14.1°C 52.5°F11.4°C 58% Calm Calm -- 29.76 in1007.8 mb 20.36 in517.1 mm 0.00 in0.0 mm 21.08 in535.4 mm
01:41 AM 57.3°F14.1°C 52.6°F11.4°C 58% Calm Calm -- 29.76 in1007.8 mb 20.36 in517.1 mm 1.80 in45.7 mm 21.08 in535.4 mm
01:40 AM 57.4°F14.1°C 52.6°F11.4°C 58% Calm Calm -- 29.76 in1007.8 mb 20.33 in516.4 mm 0.00 in0.0 mm 21.05 in534.7 mm
01:39 AM 57.3°F14.1°C 52.6°F11.4°C 58% Calm Calm -- 29.76 in1007.8 mb 20.35 in516.9 mm 0.60 in15.2 mm 21.05 in534.7 mm
01:38 AM 57.4°F14.1°C 52.6°F11.4°C 58% Calm Calm -- 29.76 in1007.8 mb 20.34 in516.6 mm 0.60 in15.2 mm 21.04 in534.4 mm
01:37 AM 57.3°F14.1°C 52.6°F11.4°C 58% Calm Calm -- 29.76 in1007.8 mb 20.33 in516.4 mm 0.00 in0.0 mm 21.03 in534.2 mm
01:36 AM 57.3°F14.1°C 52.7°F11.5°C 58% Calm Calm -- 29.76 in1007.8 mb 20.34 in516.6 mm 1.80 in45.7 mm 21.03 in534.2 mm
01:35 AM 57.2°F14.0°C 52.7°F11.5°C 58% Calm Calm -- 29.76 in1007.8 mb 20.31 in515.9 mm 1.80 in45.7 mm 21.00 in533.4 mm
01:34 AM 57.2°F14.0°C 52.6°F11.4°C 58% Calm Calm -- 29.76 in1007.8 mb 20.28 in515.1 mm 0.60 in15.2 mm 20.97 in532.6 mm
01:33 AM 57.2°F14.0°C 52.6°F11.4°C 58% Calm Calm -- 29.76 in1007.8 mb 20.27 in514.9 mm 0.00 in0.0 mm 20.96 in532.4 mm
01:32 AM 57.1°F13.9°C 52.6°F11.4°C 58% Calm Calm -- 29.76 in1007.8 mb 20.28 in515.1 mm 0.00 in0.0 mm 20.96 in532.4 mm
01:31 AM 57.1°F13.9°C 52.7°F11.5°C 58% Calm Calm -- 29.76 in1007.8 mb 20.28 in515.1 mm 0.00 in0.0 mm 20.96 in532.4 mm
01:30 AM 57.1°F13.9°C 52.7°F11.5°C 58% Calm Calm -- 29.76 in1007.8 mb 20.30 in515.6 mm 0.00 in0.0 mm 20.96 in532.4 mm
01:29 AM 57.1°F13.9°C 52.7°F11.5°C 58% Calm Calm -- 29.76 in1007.8 mb 20.32 in516.1 mm 0.60 in15.2 mm 20.96 in532.4 mm
01:28 AM 57.2°F14.0°C 52.7°F11.5°C 58% Calm Calm -- 29.76 in1007.8 mb 20.31 in515.9 mm 0.60 in15.2 mm 20.95 in532.1 mm
01:27 AM 57.2°F14.0°C 52.7°F11.5°C 58% Calm Calm -- 29.77 in1008.1 mb 20.30 in515.6 mm 0.60 in15.2 mm 20.94 in531.9 mm
01:26 AM 57.1°F13.9°C 52.7°F11.5°C 58% Calm Calm -- 29.77 in1008.1 mb 20.29 in515.4 mm 0.00 in0.0 mm 20.93 in531.6 mm
01:25 AM 57.2°F14.0°C 52.7°F11.5°C 58% Calm Calm -- 29.76 in1007.8 mb 20.31 in515.9 mm 1.80 in45.7 mm 20.93 in531.6 mm
01:24 AM 57.2°F14.0°C 52.7°F11.5°C 58% Calm Calm -- 29.77 in1008.1 mb 20.28 in515.1 mm 2.40 in61.0 mm 20.90 in530.9 mm
01:23 AM 57.2°F14.0°C 52.8°F11.6°C 58% Calm Calm -- 29.77 in1008.1 mb 20.24 in514.1 mm 0.00 in0.0 mm 20.86 in529.8 mm
01:22 AM 57.3°F14.1°C 52.7°F11.5°C 58% Calm Calm -- 29.77 in1008.1 mb 20.25 in514.4 mm 0.00 in0.0 mm 20.86 in529.8 mm
01:21 AM 57.3°F14.1°C 52.8°F11.6°C 58% Calm Calm -- 29.77 in1008.1 mb 20.26 in514.6 mm 0.00 in0.0 mm 20.86 in529.8 mm
01:20 AM 57.3°F14.1°C 52.8°F11.6°C 58% Calm Calm -- 29.77 in1008.1 mb 20.29 in515.4 mm 0.00 in0.0 mm 20.86 in529.8 mm
01:19 AM 57.3°F14.1°C 52.8°F11.6°C 58% Calm Calm -- 29.77 in1008.1 mb 20.29 in515.4 mm 0.60 in15.2 mm 20.86 in529.8 mm
01:18 AM 57.3°F14.1°C 52.8°F11.6°C 58% Calm Calm -- 29.77 in1008.1 mb 20.28 in515.1 mm 0.00 in0.0 mm 20.85 in529.6 mm
01:17 AM 57.3°F14.1°C 52.8°F11.6°C 58% Calm Calm -- 29.77 in1008.1 mb 20.28 in515.1 mm 0.00 in0.0 mm 20.85 in529.6 mm
01:16 AM 57.2°F14.0°C 52.9°F11.6°C 58% Calm Calm -- 29.77 in1008.1 mb 20.28 in515.1 mm 0.00 in0.0 mm 20.85 in529.6 mm
01:15 AM 57.1°F13.9°C 52.9°F11.6°C 58% Calm Calm -- 29.77 in1008.1 mb 20.31 in515.9 mm 0.00 in0.0 mm 20.85 in529.6 mm
01:14 AM 57.1°F13.9°C 52.9°F11.6°C 58% Calm Calm -- 29.77 in1008.1 mb 20.31 in515.9 mm 3.60 in91.4 mm 20.85 in529.6 mm
01:13 AM 57.0°F13.9°C 52.9°F11.6°C 58% Calm Calm -- 29.77 in1008.1 mb 20.25 in514.4 mm 0.00 in0.0 mm 20.79 in528.1 mm
01:12 AM 57.0°F13.9°C 52.9°F11.6°C 58% Calm Calm -- 29.77 in1008.1 mb 20.27 in514.9 mm 0.00 in0.0 mm 20.79 in528.1 mm
01:11 AM 57.1°F13.9°C 52.9°F11.6°C 58% Calm Calm -- 29.77 in1008.1 mb 20.29 in515.4 mm 0.00 in0.0 mm 20.79 in528.1 mm
01:10 AM 57.2°F14.0°C 52.9°F11.6°C 58% Calm Calm -- 29.77 in1008.1 mb 20.29 in515.4 mm 1.80 in45.7 mm 20.79 in528.1 mm
01:09 AM 57.2°F14.0°C 52.9°F11.6°C 58% Calm Calm -- 29.77 in1008.1 mb 20.26 in514.6 mm 0.00 in0.0 mm 20.76 in527.3 mm
01:08 AM 57.3°F14.1°C 52.9°F11.6°C 58% Calm Calm -- 29.77 in1008.1 mb 20.27 in514.9 mm 0.00 in0.0 mm 20.76 in527.3 mm
01:07 AM 57.3°F14.1°C 52.9°F11.6°C 58% Calm Calm -- 29.77 in1008.1 mb 20.27 in514.9 mm 0.00 in0.0 mm 20.76 in527.3 mm
01:06 AM 57.4°F14.1°C 52.9°F11.6°C 58% Calm Calm -- 29.77 in1008.1 mb 20.28 in515.1 mm 1.20 in30.5 mm 20.76 in527.3 mm
01:05 AM 57.4°F14.1°C 52.9°F11.6°C 58% Calm Calm -- 29.77 in1008.1 mb 20.26 in514.6 mm 0.00 in0.0 mm 20.74 in526.8 mm
01:04 AM 57.4°F14.1°C 53.0°F11.7°C 58% Calm Calm -- 29.77 in1008.1 mb 20.26 in514.6 mm 0.00 in0.0 mm 20.74 in526.8 mm
01:03 AM 57.4°F14.1°C 53.0°F11.7°C 57% Calm Calm -- 29.77 in1008.1 mb 20.27 in514.9 mm 1.80 in45.7 mm 20.74 in526.8 mm
01:02 AM 57.4°F14.1°C 53.0°F11.7°C 57% Calm Calm -- 29.77 in1008.1 mb 20.24 in514.1 mm 0.00 in0.0 mm 20.71 in526.0 mm
01:01 AM 57.5°F14.2°C 53.0°F11.7°C 57% Calm Calm -- 29.77 in1008.1 mb 20.24 in514.1 mm 0.00 in0.0 mm 20.71 in526.0 mm
12:59 AM 57.5°F14.2°C 53.0°F11.7°C 57% Calm Calm -- 29.77 in1008.1 mb 20.27 in514.9 mm 0.00 in0.0 mm 20.71 in526.0 mm
12:58 AM 57.7°F14.3°C 53.0°F11.7°C 57% Calm Calm -- 29.77 in1008.1 mb 20.30 in515.6 mm 0.00 in0.0 mm 20.71 in526.0 mm
12:57 AM 57.7°F14.3°C 53.0°F11.7°C 57% Calm Calm -- 29.77 in1008.1 mb 20.32 in516.1 mm 0.60 in15.2 mm 20.71 in526.0 mm
12:56 AM 57.7°F14.3°C 53.0°F11.7°C 57% Calm Calm -- 29.77 in1008.1 mb 20.31 in515.9 mm 0.00 in0.0 mm 20.70 in525.8 mm
12:55 AM 57.7°F14.3°C 53.0°F11.7°C 57% Calm Calm -- 29.77 in1008.1 mb 20.31 in515.9 mm 0.00 in0.0 mm 20.70 in525.8 mm
12:54 AM 57.7°F14.3°C 53.0°F11.7°C 57% Calm Calm -- 29.77 in1008.1 mb 20.31 in515.9 mm 0.60 in15.2 mm 20.70 in525.8 mm
12:53 AM 57.5°F14.2°C 53.0°F11.7°C 57% Calm Calm -- 29.77 in1008.1 mb 20.30 in515.6 mm 1.80 in45.7 mm 20.69 in525.5 mm
12:52 AM 57.5°F14.2°C 53.0°F11.7°C 57% Calm Calm -- 29.77 in1008.1 mb 20.27 in514.9 mm 0.00 in0.0 mm 20.66 in524.8 mm
12:51 AM 57.5°F14.2°C 53.1°F11.7°C 57% Calm Calm -- 29.77 in1008.1 mb 20.29 in515.4 mm 0.00 in0.0 mm 20.66 in524.8 mm
12:50 AM 57.5°F14.2°C 53.1°F11.7°C 57% Calm Calm -- 29.77 in1008.1 mb 20.30 in515.6 mm 1.20 in30.5 mm 20.66 in524.8 mm
12:49 AM 57.5°F14.2°C 53.1°F11.7°C 57% Calm Calm -- 29.77 in1008.1 mb 20.28 in515.1 mm 0.00 in0.0 mm 20.64 in524.3 mm
12:48 AM 57.7°F14.3°C 53.1°F11.7°C 57% Calm Calm -- 29.77 in1008.1 mb 20.29 in515.4 mm 0.00 in0.0 mm 20.64 in524.3 mm
12:47 AM 57.8°F14.3°C 53.1°F11.7°C 57% Calm Calm -- 29.77 in1008.1 mb 20.29 in515.4 mm 0.00 in0.0 mm 20.64 in524.3 mm
12:46 AM 57.7°F14.3°C 53.0°F11.7°C 57% Calm Calm -- 29.77 in1008.1 mb 20.30 in515.6 mm 0.00 in0.0 mm 20.64 in524.3 mm
12:45 AM 57.7°F14.3°C 53.2°F11.8°C 57% Calm Calm -- 29.77 in1008.1 mb 20.32 in516.1 mm 0.00 in0.0 mm 20.64 in524.3 mm
12:44 AM 57.8°F14.3°C 53.1°F11.7°C 57% Calm Calm -- 29.77 in1008.1 mb 20.33 in516.4 mm 0.00 in0.0 mm 20.64 in524.3 mm
12:43 AM 57.8°F14.3°C 53.1°F11.7°C 57% Calm Calm -- 29.77 in1008.1 mb 20.33 in516.4 mm 0.00 in0.0 mm 20.64 in524.3 mm
12:42 AM 57.9°F14.4°C 53.2°F11.8°C 57% Calm Calm -- 29.77 in1008.1 mb 20.33 in516.4 mm 0.60 in15.2 mm 20.64 in524.3 mm
12:41 AM 57.9°F14.4°C 53.1°F11.7°C 57% Calm Calm -- 29.77 in1008.1 mb 20.32 in516.1 mm 0.00 in0.0 mm 20.63 in524.0 mm
12:40 AM 57.9°F14.4°C 53.0°F11.7°C 57% Calm Calm -- 29.77 in1008.1 mb 20.32 in516.1 mm 0.00 in0.0 mm 20.63 in524.0 mm
12:39 AM 57.9°F14.4°C 53.2°F11.8°C 57% Calm Calm -- 29.77 in1008.1 mb 20.33 in516.4 mm 0.00 in0.0 mm 20.63 in524.0 mm
12:38 AM 58.0°F14.4°C 53.2°F11.8°C 57% Calm Calm -- 29.77 in1008.1 mb 20.35 in516.9 mm 0.00 in0.0 mm 20.63 in524.0 mm
12:37 AM 58.1°F14.5°C 53.1°F11.7°C 57% Calm Calm -- 29.77 in1008.1 mb 20.35 in516.9 mm 0.60 in15.2 mm 20.63 in524.0 mm
12:36 AM 58.2°F14.6°C 53.2°F11.8°C 57% Calm Calm -- 29.77 in1008.1 mb 20.34 in516.6 mm 0.00 in0.0 mm 20.62 in523.7 mm
12:35 AM 58.2°F14.6°C 53.2°F11.8°C 57% Calm Calm -- 29.77 in1008.1 mb 20.36 in517.1 mm 0.00 in0.0 mm 20.62 in523.7 mm
12:34 AM 58.2°F14.6°C 53.2°F11.8°C 57% Calm Calm -- 29.77 in1008.1 mb 20.37 in517.4 mm 0.00 in0.0 mm 20.62 in523.7 mm
12:33 AM 58.2°F14.6°C 52.9°F11.6°C 56% Calm Calm -- 29.77 in1008.1 mb 20.38 in517.7 mm 0.00 in0.0 mm 20.62 in523.7 mm
12:32 AM 58.3°F14.6°C 53.2°F11.8°C 57% Calm Calm -- 29.77 in1008.1 mb 20.39 in517.9 mm 1.80 in45.7 mm 20.62 in523.7 mm
12:31 AM 58.3°F14.6°C 53.2°F11.8°C 57% Calm Calm -- 29.77 in1008.1 mb 20.36 in517.1 mm 0.00 in0.0 mm 20.59 in523.0 mm
12:30 AM 58.3°F14.6°C 53.1°F11.7°C 56% Calm Calm -- 29.77 in1008.1 mb 20.36 in517.1 mm 1.20 in30.5 mm 20.59 in523.0 mm
12:29 AM 58.3°F14.6°C 53.2°F11.8°C 57% Calm Calm -- 29.77 in1008.1 mb 20.34 in516.6 mm 0.00 in0.0 mm 20.57 in522.5 mm
12:28 AM 58.4°F14.7°C 53.3°F11.8°C 57% Calm Calm -- 29.77 in1008.1 mb 20.36 in517.1 mm 1.20 in30.5 mm 20.57 in522.5 mm
12:27 AM 58.3°F14.6°C 53.3°F11.8°C 57% Calm Calm -- 29.77 in1008.1 mb 20.34 in516.6 mm 0.60 in15.2 mm 20.55 in522.0 mm
12:26 AM 58.4°F14.7°C 53.2°F11.8°C 57% Calm Calm -- 29.77 in1008.1 mb 20.33 in516.4 mm 1.80 in45.7 mm 20.54 in521.7 mm
12:25 AM 58.4°F14.7°C 53.3°F11.8°C 57% Calm Calm -- 29.77 in1008.1 mb 20.30 in515.6 mm 0.00 in0.0 mm 20.51 in521.0 mm
12:24 AM 58.4°F14.7°C 53.3°F11.8°C 57% Calm Calm -- 29.77 in1008.1 mb 20.31 in515.9 mm 0.00 in0.0 mm 20.51 in521.0 mm
12:23 AM 58.3°F14.6°C 53.2°F11.8°C 56% Calm Calm -- 29.77 in1008.1 mb 20.32 in516.1 mm 1.20 in30.5 mm 20.51 in521.0 mm
12:22 AM 58.3°F14.6°C 53.4°F11.9°C 57% Calm Calm -- 29.77 in1008.1 mb 20.30 in515.6 mm 1.80 in45.7 mm 20.49 in520.4 mm
12:21 AM 58.3°F14.6°C 53.4°F11.9°C 57% Calm Calm -- 29.77 in1008.1 mb 20.27 in514.9 mm 0.00 in0.0 mm 20.46 in519.7 mm
12:20 AM 58.3°F14.6°C 53.2°F11.8°C 56% Calm Calm -- 29.77 in1008.1 mb 20.27 in514.9 mm 0.60 in15.2 mm 20.46 in519.7 mm
12:19 AM 58.3°F14.6°C 53.4°F11.9°C 57% Calm Calm -- 29.77 in1008.1 mb 20.26 in514.6 mm 0.00 in0.0 mm 20.45 in519.4 mm
12:18 AM 58.4°F14.7°C 53.3°F11.8°C 56% Calm Calm -- 29.77 in1008.1 mb 20.27 in514.9 mm 0.60 in15.2 mm 20.45 in519.4 mm
12:17 AM 58.4°F14.7°C 53.4°F11.9°C 57% Calm Calm -- 29.77 in1008.1 mb 20.26 in514.6 mm 1.80 in45.7 mm 20.44 in519.2 mm
12:16 AM 58.6°F14.8°C 53.3°F11.8°C 56% Calm Calm -- 29.77 in1008.1 mb 20.23 in513.8 mm 0.60 in15.2 mm 20.41 in518.4 mm
12:15 AM 58.6°F14.8°C 53.0°F11.7°C 56% Calm Calm -- 29.77 in1008.1 mb 20.22 in513.6 mm 1.20 in30.5 mm 20.40 in518.2 mm
12:14 AM 58.7°F14.8°C 53.4°F11.9°C 56% Calm Calm -- 29.77 in1008.1 mb 20.20 in513.1 mm 0.00 in0.0 mm 20.38 in517.7 mm
12:13 AM 58.8°F14.9°C 53.3°F11.8°C 56% Calm Calm -- 29.77 in1008.1 mb 20.22 in513.6 mm 0.00 in0.0 mm 20.38 in517.7 mm
12:12 AM 58.8°F14.9°C 53.1°F11.7°C 56% Calm Calm -- 29.77 in1008.1 mb 20.22 in513.6 mm 0.00 in0.0 mm 20.38 in517.7 mm
12:11 AM 58.9°F14.9°C 53.3°F11.8°C 56% Calm Calm -- 29.77 in1008.1 mb 20.23 in513.8 mm 0.00 in0.0 mm 20.38 in517.7 mm
12:10 AM 58.9°F14.9°C 53.5°F11.9°C 56% Calm Calm -- 29.77 in1008.1 mb 20.27 in514.9 mm 0.00 in0.0 mm 20.38 in517.7 mm
12:09 AM 59.0°F15.0°C 53.4°F11.9°C 56% Calm Calm -- 29.77 in1008.1 mb 20.30 in515.6 mm 0.60 in15.2 mm 20.38 in517.7 mm
12:08 AM 59.2°F15.1°C 53.4°F11.9°C 56% Calm Calm -- 29.77 in1008.1 mb 20.29 in515.4 mm 0.60 in15.2 mm 20.37 in517.4 mm
12:07 AM 59.3°F15.2°C 53.3°F11.8°C 56% Calm Calm -- 29.77 in1008.1 mb 20.28 in515.1 mm 1.20 in30.5 mm 20.36 in517.1 mm
12:06 AM 59.5°F15.3°C 53.5°F11.9°C 56% Calm Calm -- 29.77 in1008.1 mb 20.26 in514.6 mm 0.00 in0.0 mm 20.34 in516.6 mm
12:05 AM 59.6°F15.3°C 53.5°F11.9°C 56% Calm Calm -- 29.77 in1008.1 mb 20.30 in515.6 mm 0.00 in0.0 mm 20.34 in516.6 mm
12:04 AM 59.7°F15.4°C 53.5°F11.9°C 56% Calm Calm -- 29.77 in1008.1 mb 20.30 in515.6 mm 0.00 in0.0 mm 20.34 in516.6 mm
12:03 AM 59.7°F15.4°C 53.2°F11.8°C 56% Calm Calm -- 29.77 in1008.1 mb 20.31 in515.9 mm 0.00 in0.0 mm 20.34 in516.6 mm
12:02 AM 59.7°F15.4°C 53.6°F12.0°C 56% Calm Calm -- 29.77 in1008.1 mb 20.34 in516.6 mm 0.60 in15.2 mm 20.34 in516.6 mm
12:01 AM 59.7°F15.4°C 53.7°F12.1°C 56% 1.0 mph S1.6 kmh S -- 29.77 in1008.1 mb 20.33 in516.4 mm 1219.80 in30982.9 mm 20.33 in516.4 mm